sensor_id;sensor_type;location;lat;lon;timestamp;pressure;altitude;pressure_sealevel;temperature;humidity
35716;BME280;21840;44.920;8.616;2023-03-01T00:01:17;100839.25;;;9.63;44.02
35716;BME280;21840;44.920;8.616;2023-03-01T00:03:43;100827.72;;;9.77;44.11
35716;BME280;21840;44.920;8.616;2023-03-01T00:06:09;100831.31;;;9.76;43.82
35716;BME280;21840;44.920;8.616;2023-03-01T00:08:35;100837.50;;;9.86;43.39
35716;BME280;21840;44.920;8.616;2023-03-01T00:11:14;100828.31;;;9.81;43.44
35716;BME280;21840;44.920;8.616;2023-03-01T00:13:41;100820.34;;;9.71;43.85
35716;BME280;21840;44.920;8.616;2023-03-01T00:16:09;100823.28;;;9.55;44.27
35716;BME280;21840;44.920;8.616;2023-03-01T00:18:35;100835.66;;;9.53;44.14
35716;BME280;21840;44.920;8.616;2023-03-01T00:21:01;100833.75;;;9.55;44.16
35716;BME280;21840;44.920;8.616;2023-03-01T00:23:27;100815.66;;;9.63;43.94
35716;BME280;21840;44.920;8.616;2023-03-01T00:25:53;100821.84;;;9.62;44.14
35716;BME280;21840;44.920;8.616;2023-03-01T00:28:19;100827.13;;;9.74;44.01
35716;BME280;21840;44.920;8.616;2023-03-01T00:30:45;100824.50;;;9.85;43.92
35716;BME280;21840;44.920;8.616;2023-03-01T00:33:11;100832.94;;;9.66;44.12
35716;BME280;21840;44.920;8.616;2023-03-01T00:35:37;100823.31;;;10.00;43.62
35716;BME280;21840;44.920;8.616;2023-03-01T00:38:03;100815.22;;;9.92;43.72
35716;BME280;21840;44.920;8.616;2023-03-01T00:40:31;100806.63;;;9.90;43.93
35716;BME280;21840;44.920;8.616;2023-03-01T00:42:57;100813.53;;;9.91;43.83
35716;BME280;21840;44.920;8.616;2023-03-01T00:45:23;100809.72;;;9.72;44.22
35716;BME280;21840;44.920;8.616;2023-03-01T00:47:49;100803.59;;;9.61;44.52
35716;BME280;21840;44.920;8.616;2023-03-01T00:50:15;100804.22;;;9.87;44.41
35716;BME280;21840;44.920;8.616;2023-03-01T00:52:41;100801.47;;;10.00;44.05
35716;BME280;21840;44.920;8.616;2023-03-01T00:55:07;100789.78;;;9.92;44.16
35716;BME280;21840;44.920;8.616;2023-03-01T00:57:33;100788.75;;;9.84;44.53
35716;BME280;21840;44.920;8.616;2023-03-01T00:59:58;100786.22;;;9.60;44.82
35716;BME280;21840;44.920;8.616;2023-03-01T01:02:24;100783.13;;;9.77;44.70
35716;BME280;21840;44.920;8.616;2023-03-01T01:04:50;100798.28;;;9.74;44.49
35716;BME280;21840;44.920;8.616;2023-03-01T01:07:17;100794.41;;;9.33;45.70
35716;BME280;21840;44.920;8.616;2023-03-01T01:09:42;100794.06;;;9.37;45.51
35716;BME280;21840;44.920;8.616;2023-03-01T01:12:08;100796.97;;;9.10;46.11
35716;BME280;21840;44.920;8.616;2023-03-01T01:14:34;100790.13;;;9.32;46.13
35716;BME280;21840;44.920;8.616;2023-03-01T01:16:59;100787.47;;;9.20;45.88
35716;BME280;21840;44.920;8.616;2023-03-01T01:19:26;100780.00;;;9.38;45.78
35716;BME280;21840;44.920;8.616;2023-03-01T01:21:51;100768.69;;;9.60;45.30
35716;BME280;21840;44.920;8.616;2023-03-01T01:24:18;100751.56;;;9.56;45.20
35716;BME280;21840;44.920;8.616;2023-03-01T01:26:44;100752.38;;;9.57;45.45
35716;BME280;21840;44.920;8.616;2023-03-01T01:29:12;100747.50;;;9.52;45.14
35716;BME280;21840;44.920;8.616;2023-03-01T01:31:40;100749.84;;;9.21;45.69
35716;BME280;21840;44.920;8.616;2023-03-01T01:34:08;100750.56;;;9.46;45.80
35716;BME280;21840;44.920;8.616;2023-03-01T01:36:37;100738.44;;;9.56;45.35
35716;BME280;21840;44.920;8.616;2023-03-01T01:39:03;100745.94;;;9.61;45.37
35716;BME280;21840;44.920;8.616;2023-03-01T01:41:30;100752.00;;;9.39;45.91
35716;BME280;21840;44.920;8.616;2023-03-01T01:44:21;100743.66;;;9.45;45.66
35716;BME280;21840;44.920;8.616;2023-03-01T01:49:38;100745.56;;;9.32;46.22
35716;BME280;21840;44.920;8.616;2023-03-01T01:57:17;100738.84;;;9.05;46.47
35716;BME280;21840;44.920;8.616;2023-03-01T01:59:46;100730.78;;;9.19;46.63
35716;BME280;21840;44.920;8.616;2023-03-01T02:02:14;100727.94;;;9.45;46.02
35716;BME280;21840;44.920;8.616;2023-03-01T02:04:39;100724.38;;;9.57;45.73
35716;BME280;21840;44.920;8.616;2023-03-01T02:09:37;100725.69;;;9.52;45.80
35716;BME280;21840;44.920;8.616;2023-03-01T02:12:03;100721.75;;;9.68;45.67
35716;BME280;21840;44.920;8.616;2023-03-01T02:14:29;100720.78;;;9.47;45.84
35716;BME280;21840;44.920;8.616;2023-03-01T02:16:55;100716.75;;;9.54;45.90
35716;BME280;21840;44.920;8.616;2023-03-01T02:22:10;100714.84;;;9.45;46.18
35716;BME280;21840;44.920;8.616;2023-03-01T02:27:13;100721.16;;;9.42;46.41
35716;BME280;21840;44.920;8.616;2023-03-01T02:29:38;100717.00;;;9.51;46.14
35716;BME280;21840;44.920;8.616;2023-03-01T02:32:04;100717.03;;;8.58;47.84
35716;BME280;21840;44.920;8.616;2023-03-01T02:34:31;100719.19;;;9.11;47.26
35716;BME280;21840;44.920;8.616;2023-03-01T02:37:04;100706.53;;;8.82;48.22
35716;BME280;21840;44.920;8.616;2023-03-01T02:39:39;100706.28;;;8.85;47.81
35716;BME280;21840;44.920;8.616;2023-03-01T02:42:11;100701.22;;;9.06;47.58
35716;BME280;21840;44.920;8.616;2023-03-01T02:44:38;100696.09;;;9.16;47.08
35716;BME280;21840;44.920;8.616;2023-03-01T02:47:04;100688.84;;;9.19;46.99
35716;BME280;21840;44.920;8.616;2023-03-01T02:49:34;100683.38;;;9.22;47.03
35716;BME280;21840;44.920;8.616;2023-03-01T02:57:24;100671.25;;;9.44;46.47
35716;BME280;21840;44.920;8.616;2023-03-01T02:59:54;100669.91;;;9.38;46.67
35716;BME280;21840;44.920;8.616;2023-03-01T03:02:21;100670.03;;;9.37;46.80
35716;BME280;21840;44.920;8.616;2023-03-01T03:05:15;100670.97;;;9.36;46.87
35716;BME280;21840;44.920;8.616;2023-03-01T03:07:43;100672.41;;;9.40;46.66
35716;BME280;21840;44.920;8.616;2023-03-01T03:10:13;100671.34;;;9.42;46.75
35716;BME280;21840;44.920;8.616;2023-03-01T03:12:40;100673.50;;;8.68;48.36
35716;BME280;21840;44.920;8.616;2023-03-01T03:15:09;100670.25;;;8.53;48.56
35716;BME280;21840;44.920;8.616;2023-03-01T03:17:36;100668.00;;;9.06;47.36
35716;BME280;21840;44.920;8.616;2023-03-01T03:20:04;100661.09;;;9.05;47.39
35716;BME280;21840;44.920;8.616;2023-03-01T03:22:31;100656.88;;;8.69;47.94
35716;BME280;21840;44.920;8.616;2023-03-01T03:24:59;100666.06;;;8.39;48.94
35716;BME280;21840;44.920;8.616;2023-03-01T03:27:24;100662.47;;;8.40;48.82
35716;BME280;21840;44.920;8.616;2023-03-01T03:29:50;100663.25;;;8.30;48.79
35716;BME280;21840;44.920;8.616;2023-03-01T03:32:15;100661.22;;;8.33;49.01
35716;BME280;21840;44.920;8.616;2023-03-01T03:34:41;100666.72;;;8.66;48.31
35716;BME280;21840;44.920;8.616;2023-03-01T03:37:06;100674.91;;;8.50;48.42
35716;BME280;21840;44.920;8.616;2023-03-01T03:39:52;100671.06;;;8.42;48.67
35716;BME280;21840;44.920;8.616;2023-03-01T03:42:21;100677.25;;;8.41;48.96
35716;BME280;21840;44.920;8.616;2023-03-01T03:44:47;100671.06;;;8.42;48.49
35716;BME280;21840;44.920;8.616;2023-03-01T03:47:12;100669.06;;;8.33;48.65
35716;BME280;21840;44.920;8.616;2023-03-01T03:49:38;100667.38;;;8.45;48.63
35716;BME280;21840;44.920;8.616;2023-03-01T03:52:03;100669.91;;;8.58;48.39
35716;BME280;21840;44.920;8.616;2023-03-01T03:54:29;100670.22;;;8.42;48.80
35716;BME280;21840;44.920;8.616;2023-03-01T03:57:13;100651.25;;;8.62;47.98
35716;BME280;21840;44.920;8.616;2023-03-01T03:59:38;100657.06;;;8.31;48.89
35716;BME280;21840;44.920;8.616;2023-03-01T04:02:03;100657.03;;;8.19;48.84
35716;BME280;21840;44.920;8.616;2023-03-01T04:04:29;100651.88;;;7.70;50.58
35716;BME280;21840;44.920;8.616;2023-03-01T04:06:54;100643.81;;;7.73;49.96
35716;BME280;21840;44.920;8.616;2023-03-01T04:09:20;100648.28;;;8.08;49.17
35716;BME280;21840;44.920;8.616;2023-03-01T04:11:45;100646.00;;;8.03;49.22
35716;BME280;21840;44.920;8.616;2023-03-01T04:14:11;100632.75;;;7.93;49.69
35716;BME280;21840;44.920;8.616;2023-03-01T04:16:36;100637.06;;;7.57;50.80
35716;BME280;21840;44.920;8.616;2023-03-01T04:19:02;100634.09;;;7.25;51.13
35716;BME280;21840;44.920;8.616;2023-03-01T04:21:27;100637.94;;;7.45;51.10
35716;BME280;21840;44.920;8.616;2023-03-01T04:23:53;100636.97;;;7.59;50.57
35716;BME280;21840;44.920;8.616;2023-03-01T04:26:19;100637.00;;;7.46;50.41
35716;BME280;21840;44.920;8.616;2023-03-01T04:28:45;100641.94;;;7.75;50.11
35716;BME280;21840;44.920;8.616;2023-03-01T04:31:16;100635.00;;;7.87;49.60
35716;BME280;21840;44.920;8.616;2023-03-01T04:33:47;100629.03;;;7.85;49.94
35716;BME280;21840;44.920;8.616;2023-03-01T04:36:15;100631.97;;;7.80;50.08
35716;BME280;21840;44.920;8.616;2023-03-01T04:38:41;100633.63;;;7.81;49.63
35716;BME280;21840;44.920;8.616;2023-03-01T04:41:08;100630.63;;;7.98;49.10
35716;BME280;21840;44.920;8.616;2023-03-01T04:43:34;100626.00;;;8.26;48.65
35716;BME280;21840;44.920;8.616;2023-03-01T04:46:02;100634.53;;;8.17;48.92
35716;BME280;21840;44.920;8.616;2023-03-01T04:48:29;100631.63;;;8.33;48.39
35716;BME280;21840;44.920;8.616;2023-03-01T04:50:54;100626.81;;;8.39;48.46
35716;BME280;21840;44.920;8.616;2023-03-01T04:53:20;100626.94;;;8.14;48.95
35716;BME280;21840;44.920;8.616;2023-03-01T04:55:45;100626.28;;;8.34;48.38
35716;BME280;21840;44.920;8.616;2023-03-01T04:58:10;100623.69;;;8.10;48.79
35716;BME280;21840;44.920;8.616;2023-03-01T05:00:36;100632.09;;;8.38;48.63
35716;BME280;21840;44.920;8.616;2023-03-01T05:03:01;100631.97;;;8.28;48.72
35716;BME280;21840;44.920;8.616;2023-03-01T05:05:32;100628.28;;;8.31;48.89
35716;BME280;21840;44.920;8.616;2023-03-01T05:08:00;100628.41;;;8.29;48.36
35716;BME280;21840;44.920;8.616;2023-03-01T05:10:27;100630.69;;;8.10;49.05
35716;BME280;21840;44.920;8.616;2023-03-01T05:12:54;100630.47;;;8.13;49.37
35716;BME280;21840;44.920;8.616;2023-03-01T05:15:22;100621.50;;;8.28;48.84
35716;BME280;21840;44.920;8.616;2023-03-01T05:17:51;100622.41;;;8.16;49.41
35716;BME280;21840;44.920;8.616;2023-03-01T05:20:17;100626.34;;;8.21;48.98
35716;BME280;21840;44.920;8.616;2023-03-01T05:22:43;100620.63;;;7.92;49.94
35716;BME280;21840;44.920;8.616;2023-03-01T05:25:09;100622.44;;;8.27;49.17
35716;BME280;21840;44.920;8.616;2023-03-01T05:27:35;100625.38;;;8.11;49.58
35716;BME280;21840;44.920;8.616;2023-03-01T05:30:01;100625.16;;;8.26;49.36
35716;BME280;21840;44.920;8.616;2023-03-01T05:32:40;100626.88;;;8.38;48.71
35716;BME280;21840;44.920;8.616;2023-03-01T05:35:05;100627.13;;;8.35;48.82
35716;BME280;21840;44.920;8.616;2023-03-01T05:37:31;100624.94;;;8.53;48.68
35716;BME280;21840;44.920;8.616;2023-03-01T05:39:56;100629.63;;;8.36;48.87
35716;BME280;21840;44.920;8.616;2023-03-01T05:42:22;100624.50;;;8.35;48.99
35716;BME280;21840;44.920;8.616;2023-03-01T05:44:47;100620.09;;;8.35;49.09
35716;BME280;21840;44.920;8.616;2023-03-01T05:47:12;100626.53;;;8.07;49.85
35716;BME280;21840;44.920;8.616;2023-03-01T05:49:38;100627.69;;;8.03;49.65
35716;BME280;21840;44.920;8.616;2023-03-01T05:52:03;100627.81;;;8.02;49.88
35716;BME280;21840;44.920;8.616;2023-03-01T05:54:29;100627.97;;;7.87;50.10
35716;BME280;21840;44.920;8.616;2023-03-01T05:56:54;100630.25;;;8.16;49.45
35716;BME280;21840;44.920;8.616;2023-03-01T05:59:20;100622.34;;;8.29;49.51
35716;BME280;21840;44.920;8.616;2023-03-01T06:01:45;100628.34;;;8.42;49.05
35716;BME280;21840;44.920;8.616;2023-03-01T06:04:11;100618.41;;;8.58;48.57
35716;BME280;21840;44.920;8.616;2023-03-01T06:06:37;100627.94;;;8.35;48.94
35716;BME280;21840;44.920;8.616;2023-03-01T06:09:03;100620.16;;;8.47;48.57
35716;BME280;21840;44.920;8.616;2023-03-01T06:11:29;100627.59;;;8.64;48.45
35716;BME280;21840;44.920;8.616;2023-03-01T06:13:54;100625.59;;;8.79;48.08
35716;BME280;21840;44.920;8.616;2023-03-01T06:16:20;100616.63;;;8.70;48.24
35716;BME280;21840;44.920;8.616;2023-03-01T06:18:45;100621.88;;;8.59;48.40
35716;BME280;21840;44.920;8.616;2023-03-01T06:21:10;100624.47;;;8.59;48.55
35716;BME280;21840;44.920;8.616;2023-03-01T06:23:36;100628.53;;;8.63;48.35
35716;BME280;21840;44.920;8.616;2023-03-01T06:26:06;100629.03;;;8.79;47.79
35716;BME280;21840;44.920;8.616;2023-03-01T06:28:32;100632.84;;;8.98;47.46
35716;BME280;21840;44.920;8.616;2023-03-01T06:30:57;100633.97;;;9.06;47.19
35716;BME280;21840;44.920;8.616;2023-03-01T06:33:22;100630.25;;;9.09;47.11
35716;BME280;21840;44.920;8.616;2023-03-01T06:35:50;100635.59;;;9.07;47.31
35716;BME280;21840;44.920;8.616;2023-03-01T06:38:16;100634.66;;;9.31;46.81
35716;BME280;21840;44.920;8.616;2023-03-01T06:40:44;100638.56;;;9.48;46.17
35716;BME280;21840;44.920;8.616;2023-03-01T06:43:10;100638.72;;;9.46;46.20
35716;BME280;21840;44.920;8.616;2023-03-01T06:45:36;100632.22;;;9.73;45.81
35716;BME280;21840;44.920;8.616;2023-03-01T06:48:04;100645.81;;;9.67;45.73
35716;BME280;21840;44.920;8.616;2023-03-01T06:50:29;100649.00;;;9.82;45.37
35716;BME280;21840;44.920;8.616;2023-03-01T06:52:56;100643.09;;;9.57;45.65
35716;BME280;21840;44.920;8.616;2023-03-01T06:55:22;100657.66;;;9.27;46.47
35716;BME280;21840;44.920;8.616;2023-03-01T06:57:47;100650.25;;;9.44;45.96
35716;BME280;21840;44.920;8.616;2023-03-01T07:00:13;100651.56;;;9.49;46.22
35716;BME280;21840;44.920;8.616;2023-03-01T07:02:39;100642.84;;;9.60;45.52
35716;BME280;21840;44.920;8.616;2023-03-01T07:05:04;100653.19;;;9.73;45.36
35716;BME280;21840;44.920;8.616;2023-03-01T07:07:30;100648.59;;;9.54;45.81
35716;BME280;21840;44.920;8.616;2023-03-01T07:09:55;100648.88;;;9.83;44.91
35716;BME280;21840;44.920;8.616;2023-03-01T07:12:21;100654.41;;;10.12;44.60
35716;BME280;21840;44.920;8.616;2023-03-01T07:14:46;100661.94;;;10.06;44.94
35716;BME280;21840;44.920;8.616;2023-03-01T07:17:12;100657.22;;;9.88;45.02
35716;BME280;21840;44.920;8.616;2023-03-01T07:19:37;100654.84;;;10.18;44.69
35716;BME280;21840;44.920;8.616;2023-03-01T07:22:03;100659.25;;;9.96;44.68
35716;BME280;21840;44.920;8.616;2023-03-01T07:24:29;100652.22;;;10.18;44.39
35716;BME280;21840;44.920;8.616;2023-03-01T07:26:55;100652.22;;;10.29;44.17
35716;BME280;21840;44.920;8.616;2023-03-01T07:29:20;100665.06;;;10.00;44.41
35716;BME280;21840;44.920;8.616;2023-03-01T07:31:46;100659.97;;;10.30;44.16
35716;BME280;21840;44.920;8.616;2023-03-01T07:34:11;100661.91;;;10.49;44.00
35716;BME280;21840;44.920;8.616;2023-03-01T07:36:37;100653.44;;;10.46;43.52
35716;BME280;21840;44.920;8.616;2023-03-01T07:39:04;100653.19;;;10.28;43.95
35716;BME280;21840;44.920;8.616;2023-03-01T07:41:30;100655.47;;;10.10;44.19
35716;BME280;21840;44.920;8.616;2023-03-01T07:43:55;100647.81;;;10.18;44.08
35716;BME280;21840;44.920;8.616;2023-03-01T07:46:21;100649.50;;;10.51;43.42
35716;BME280;21840;44.920;8.616;2023-03-01T07:48:46;100656.66;;;10.49;43.50
35716;BME280;21840;44.920;8.616;2023-03-01T07:51:12;100651.47;;;10.38;43.64
35716;BME280;21840;44.920;8.616;2023-03-01T07:53:38;100655.78;;;10.60;43.27
35716;BME280;21840;44.920;8.616;2023-03-01T07:56:06;100656.16;;;10.55;43.08
35716;BME280;21840;44.920;8.616;2023-03-01T07:58:34;100655.31;;;10.97;42.71
35716;BME280;21840;44.920;8.616;2023-03-01T08:01:02;100653.75;;;10.64;43.13
35716;BME280;21840;44.920;8.616;2023-03-01T08:03:28;100655.56;;;10.94;42.22
35716;BME280;21840;44.920;8.616;2023-03-01T08:05:53;100653.69;;;11.06;41.62
35716;BME280;21840;44.920;8.616;2023-03-01T08:08:19;100649.66;;;11.01;42.32
35716;BME280;21840;44.920;8.616;2023-03-01T08:10:44;100645.19;;;10.50;42.90
35716;BME280;21840;44.920;8.616;2023-03-01T08:13:10;100646.94;;;10.61;42.63
35716;BME280;21840;44.920;8.616;2023-03-01T08:15:35;100644.09;;;10.53;42.94
35716;BME280;21840;44.920;8.616;2023-03-01T08:18:01;100642.91;;;10.57;42.53
35716;BME280;21840;44.920;8.616;2023-03-01T08:20:26;100636.09;;;10.75;42.34
35716;BME280;21840;44.920;8.616;2023-03-01T08:22:52;100634.56;;;10.94;42.11
35716;BME280;21840;44.920;8.616;2023-03-01T08:25:17;100639.28;;;11.00;42.27
35716;BME280;21840;44.920;8.616;2023-03-01T08:27:43;100645.56;;;11.09;42.43
35716;BME280;21840;44.920;8.616;2023-03-01T08:30:09;100640.25;;;11.30;41.48
35716;BME280;21840;44.920;8.616;2023-03-01T08:32:38;100639.28;;;11.31;41.50
35716;BME280;21840;44.920;8.616;2023-03-01T08:35:04;100634.16;;;11.29;41.43
35716;BME280;21840;44.920;8.616;2023-03-01T08:37:30;100640.00;;;11.42;41.70
35716;BME280;21840;44.920;8.616;2023-03-01T08:39:59;100638.50;;;11.50;41.83
35716;BME280;21840;44.920;8.616;2023-03-01T08:42:25;100632.28;;;11.60;41.76
35716;BME280;21840;44.920;8.616;2023-03-01T08:44:51;100635.19;;;11.48;41.16
35716;BME280;21840;44.920;8.616;2023-03-01T08:47:17;100637.59;;;11.80;41.11
35716;BME280;21840;44.920;8.616;2023-03-01T08:49:42;100634.56;;;11.84;40.71
35716;BME280;21840;44.920;8.616;2023-03-01T08:52:08;100632.50;;;11.78;40.91
35716;BME280;21840;44.920;8.616;2023-03-01T08:54:33;100637.59;;;11.80;41.02
35716;BME280;21840;44.920;8.616;2023-03-01T08:57:01;100635.75;;;12.01;40.59
35716;BME280;21840;44.920;8.616;2023-03-01T08:59:27;100637.25;;;12.04;40.78
35716;BME280;21840;44.920;8.616;2023-03-01T09:01:54;100629.78;;;11.99;40.49
35716;BME280;21840;44.920;8.616;2023-03-01T09:04:20;100623.50;;;11.81;41.00
35716;BME280;21840;44.920;8.616;2023-03-01T09:06:45;100614.38;;;11.95;40.17
35716;BME280;21840;44.920;8.616;2023-03-01T09:09:16;100617.03;;;12.04;40.15
35716;BME280;21840;44.920;8.616;2023-03-01T09:11:43;100611.63;;;11.96;39.79
35716;BME280;21840;44.920;8.616;2023-03-01T09:14:08;100616.06;;;12.05;39.95
35716;BME280;21840;44.920;8.616;2023-03-01T09:16:34;100621.19;;;12.17;39.68
35716;BME280;21840;44.920;8.616;2023-03-01T09:19:02;100615.22;;;11.95;40.08
35716;BME280;21840;44.920;8.616;2023-03-01T09:21:28;100609.66;;;12.37;39.81
35716;BME280;21840;44.920;8.616;2023-03-01T09:23:56;100612.69;;;12.52;38.96
35716;BME280;21840;44.920;8.616;2023-03-01T09:26:23;100616.06;;;12.15;39.72
35716;BME280;21840;44.920;8.616;2023-03-01T09:28:50;100613.56;;;12.33;39.24
35716;BME280;21840;44.920;8.616;2023-03-01T09:31:17;100618.56;;;12.17;39.55
35716;BME280;21840;44.920;8.616;2023-03-01T09:33:46;100613.41;;;12.25;39.00
35716;BME280;21840;44.920;8.616;2023-03-01T09:36:15;100605.28;;;12.18;39.06
35716;BME280;21840;44.920;8.616;2023-03-01T09:38:41;100596.66;;;12.26;39.04
35716;BME280;21840;44.920;8.616;2023-03-01T09:41:53;100601.94;;;12.36;39.04
35716;BME280;21840;44.920;8.616;2023-03-01T09:44:47;100591.94;;;12.20;39.05
35716;BME280;21840;44.920;8.616;2023-03-01T09:47:19;100592.88;;;12.48;39.20
35716;BME280;21840;44.920;8.616;2023-03-01T09:52:43;100599.72;;;12.12;40.63
35716;BME280;21840;44.920;8.616;2023-03-01T09:55:21;100591.97;;;11.91;40.98
35716;BME280;21840;44.920;8.616;2023-03-01T10:00:29;100574.88;;;11.75;41.01
35716;BME280;21840;44.920;8.616;2023-03-01T10:05:33;100561.72;;;11.75;40.60
35716;BME280;21840;44.920;8.616;2023-03-01T10:08:24;100559.78;;;11.77;40.69
35716;BME280;21840;44.920;8.616;2023-03-01T10:10:51;100574.28;;;11.42;41.54
35716;BME280;21840;44.920;8.616;2023-03-01T10:13:25;100557.00;;;11.59;41.70
35716;BME280;21840;44.920;8.616;2023-03-01T10:15:57;100574.63;;;12.07;40.69
35716;BME280;21840;44.920;8.616;2023-03-01T10:18:27;100570.88;;;12.10;40.12
35716;BME280;21840;44.920;8.616;2023-03-01T10:21:02;100561.16;;;12.30;39.53
35716;BME280;21840;44.920;8.616;2023-03-01T10:23:30;100549.81;;;12.29;39.10
35716;BME280;21840;44.920;8.616;2023-03-01T10:28:47;100536.72;;;12.57;38.78
35716;BME280;21840;44.920;8.616;2023-03-01T10:31:20;100529.78;;;12.93;38.48
35716;BME280;21840;44.920;8.616;2023-03-01T10:33:47;100528.31;;;12.81;38.61
35716;BME280;21840;44.920;8.616;2023-03-01T10:36:17;100530.69;;;12.74;38.08
35716;BME280;21840;44.920;8.616;2023-03-01T10:38:54;100528.97;;;12.93;38.30
35716;BME280;21840;44.920;8.616;2023-03-01T10:41:21;100527.94;;;13.31;37.54
35716;BME280;21840;44.920;8.616;2023-03-01T10:43:58;100528.09;;;13.30;36.83
35716;BME280;21840;44.920;8.616;2023-03-01T10:49:20;100540.94;;;13.61;36.45
35716;BME280;21840;44.920;8.616;2023-03-01T10:51:48;100532.66;;;13.55;36.22
35716;BME280;21840;44.920;8.616;2023-03-01T10:54:40;100525.25;;;13.59;35.82
35716;BME280;21840;44.920;8.616;2023-03-01T10:57:28;100519.59;;;13.72;35.86
35716;BME280;21840;44.920;8.616;2023-03-01T11:02:47;100504.97;;;13.77;36.16
35716;BME280;21840;44.920;8.616;2023-03-01T11:08:06;100503.16;;;13.78;36.32
35716;BME280;21840;44.920;8.616;2023-03-01T11:10:34;100493.13;;;13.81;35.54
35716;BME280;21840;44.920;8.616;2023-03-01T11:13:19;100494.88;;;13.73;35.57
35716;BME280;21840;44.920;8.616;2023-03-01T11:16:03;100484.38;;;13.81;35.30
35716;BME280;21840;44.920;8.616;2023-03-01T11:18:30;100486.19;;;13.63;35.77
35716;BME280;21840;44.920;8.616;2023-03-01T11:20:57;100479.88;;;13.73;36.13
35716;BME280;21840;44.920;8.616;2023-03-01T11:23:24;100475.00;;;13.87;36.40
35716;BME280;21840;44.920;8.616;2023-03-01T11:26:05;100476.84;;;13.86;36.59
35716;BME280;21840;44.920;8.616;2023-03-01T11:28:34;100467.56;;;13.82;36.82
35716;BME280;21840;44.920;8.616;2023-03-01T11:31:07;100468.25;;;13.30;37.72
35716;BME280;21840;44.920;8.616;2023-03-01T11:33:39;100464.31;;;13.88;37.30
35716;BME280;21840;44.920;8.616;2023-03-01T11:38:41;100453.81;;;13.96;36.52
35716;BME280;21840;44.920;8.616;2023-03-01T11:54:48;100424.25;;;13.31;37.05
35716;BME280;21840;44.920;8.616;2023-03-01T11:57:19;100415.22;;;13.77;36.66
35716;BME280;21840;44.920;8.616;2023-03-01T11:59:59;100403.06;;;13.85;35.67
35716;BME280;21840;44.920;8.616;2023-03-01T12:22:37;100383.22;;;14.75;34.55
35716;BME280;21840;44.920;8.616;2023-03-01T12:25:28;100390.78;;;14.70;34.27
35716;BME280;21840;44.920;8.616;2023-03-01T12:28:03;100376.00;;;14.09;35.21
35716;BME280;21840;44.920;8.616;2023-03-01T12:31:00;100365.69;;;14.66;34.50
35716;BME280;21840;44.920;8.616;2023-03-01T12:41:47;100358.63;;;14.91;34.22
35716;BME280;21840;44.920;8.616;2023-03-01T12:44:34;100356.31;;;14.88;33.74
35716;BME280;21840;44.920;8.616;2023-03-01T12:50:03;100344.34;;;14.59;34.28
35716;BME280;21840;44.920;8.616;2023-03-01T12:55:38;100344.16;;;14.53;34.76
35716;BME280;21840;44.920;8.616;2023-03-01T13:06:27;100335.50;;;15.09;34.49
35716;BME280;21840;44.920;8.616;2023-03-01T13:09:01;100332.34;;;15.06;34.24
35716;BME280;21840;44.920;8.616;2023-03-01T13:11:29;100345.00;;;14.61;34.64
35716;BME280;21840;44.920;8.616;2023-03-01T13:16:45;100345.88;;;14.86;34.34
35716;BME280;21840;44.920;8.616;2023-03-01T13:19:28;100336.28;;;14.69;34.35
35716;BME280;21840;44.920;8.616;2023-03-01T13:21:58;100339.56;;;14.63;34.53
35716;BME280;21840;44.920;8.616;2023-03-01T13:24:39;100347.50;;;14.63;34.66
35716;BME280;21840;44.920;8.616;2023-03-01T13:29:53;100349.19;;;14.97;33.83
35716;BME280;21840;44.920;8.616;2023-03-01T13:32:33;100347.03;;;14.76;34.02
35716;BME280;21840;44.920;8.616;2023-03-01T13:37:43;100343.94;;;15.13;33.49
35716;BME280;21840;44.920;8.616;2023-03-01T13:42:46;100353.47;;;14.73;34.55
35716;BME280;21840;44.920;8.616;2023-03-01T13:45:16;100342.09;;;14.73;34.69
35716;BME280;21840;44.920;8.616;2023-03-01T13:47:45;100340.47;;;15.13;34.31
35716;BME280;21840;44.920;8.616;2023-03-01T13:50:23;100344.59;;;14.91;34.92
35716;BME280;21840;44.920;8.616;2023-03-01T13:52:57;100344.19;;;14.61;35.54
35716;BME280;21840;44.920;8.616;2023-03-01T13:55:26;100333.19;;;14.48;35.51
35716;BME280;21840;44.920;8.616;2023-03-01T13:58:01;100342.03;;;14.56;35.56
35716;BME280;21840;44.920;8.616;2023-03-01T14:03:18;100353.94;;;14.60;35.44
35716;BME280;21840;44.920;8.616;2023-03-01T14:06:07;100351.47;;;14.67;35.18
35716;BME280;21840;44.920;8.616;2023-03-01T14:08:35;100360.16;;;14.09;35.52
35716;BME280;21840;44.920;8.616;2023-03-01T14:14:29;100367.84;;;14.28;35.42
35716;BME280;21840;44.920;8.616;2023-03-01T14:17:24;100368.78;;;14.19;34.80
35716;BME280;21840;44.920;8.616;2023-03-01T14:20:03;100371.66;;;14.42;34.39
35716;BME280;21840;44.920;8.616;2023-03-01T14:22:35;100371.50;;;14.01;35.14
35716;BME280;21840;44.920;8.616;2023-03-01T14:25:16;100376.06;;;14.25;34.98
35716;BME280;21840;44.920;8.616;2023-03-01T14:27:42;100368.78;;;14.19;34.67
35716;BME280;21840;44.920;8.616;2023-03-01T14:30:15;100378.75;;;14.33;34.71
35716;BME280;21840;44.920;8.616;2023-03-01T14:32:52;100387.50;;;14.34;35.31
35716;BME280;21840;44.920;8.616;2023-03-01T14:35:21;100376.06;;;13.91;36.23
35716;BME280;21840;44.920;8.616;2023-03-01T14:37:46;100391.19;;;14.15;36.38
35716;BME280;21840;44.920;8.616;2023-03-01T14:42:50;100392.44;;;14.02;37.18
35716;BME280;21840;44.920;8.616;2023-03-01T14:45:16;100394.47;;;14.09;37.28
35716;BME280;21840;44.920;8.616;2023-03-01T14:47:44;100391.66;;;14.10;36.48
35716;BME280;21840;44.920;8.616;2023-03-01T14:52:46;100391.78;;;14.35;36.30
35716;BME280;21840;44.920;8.616;2023-03-01T14:55:16;100390.91;;;14.18;36.91
35716;BME280;21840;44.920;8.616;2023-03-01T14:57:52;100385.31;;;13.95;37.95
35716;BME280;21840;44.920;8.616;2023-03-01T15:00:22;100386.34;;;14.02;37.82
35716;BME280;21840;44.920;8.616;2023-03-01T15:02:48;100381.28;;;14.09;37.19
35716;BME280;21840;44.920;8.616;2023-03-01T15:05:18;100379.91;;;14.05;37.46